createdAt,value
2022-10-31T00:02:59.041Z,12.55
2022-10-31T00:09:01.912Z,12.43
2022-10-31T00:15:03.462Z,15.30
2022-10-31T00:21:05.035Z,18.15
2022-10-31T00:27:06.671Z,13.77
2022-10-31T00:33:08.120Z,13.20
2022-10-31T00:39:09.587Z,14.90
2022-10-31T00:45:11.477Z,11.00
2022-10-31T00:51:13.086Z,16.10
2022-10-31T00:57:16.256Z,13.53
2022-10-31T01:03:17.989Z,15.32
2022-10-31T01:09:19.609Z,13.77
2022-10-31T01:15:22.376Z,13.90
2022-10-31T01:21:25.260Z,10.57
2022-10-31T01:27:26.782Z,12.50
2022-10-31T01:33:28.231Z,10.35
2022-10-31T01:39:29.697Z,11.27
2022-10-31T01:45:31.234Z,12.43
2022-10-31T01:51:34.966Z,14.38
2022-10-31T01:57:38.428Z,12.53
2022-10-31T02:03:39.885Z,11.13
2022-10-31T02:09:42.076Z,10.00
2022-10-31T02:15:45.089Z,16.40
2022-10-31T02:22:06.917Z,11.95
2022-10-31T02:28:27.455Z,11.07
2022-10-31T02:34:37.618Z,13.00
2022-10-31T02:40:45.149Z,11.77
2022-10-31T02:47:23.171Z,13.35
2022-10-31T02:53:24.936Z,9.65
2022-10-31T02:59:27.451Z,13.50
2022-10-31T03:05:49.226Z,12.13
2022-10-31T03:12:06.041Z,12.40
2022-10-31T03:18:40.206Z,15.95
2022-10-31T03:24:42.770Z,14.25
2022-10-31T03:30:45.165Z,11.40
2022-10-31T03:36:49.953Z,11.45
2022-10-31T03:42:54.388Z,11.87
2022-10-31T03:48:57.388Z,12.25
2022-10-31T03:55:07.599Z,12.57
2022-10-31T04:01:12.474Z,10.37
2022-10-31T04:07:15.890Z,12.63
2022-10-31T04:13:23.846Z,11.87
2022-10-31T04:19:33.742Z,11.82
2022-10-31T04:25:35.296Z,12.02
2022-10-31T04:31:37.218Z,11.13
2022-10-31T04:37:38.776Z,11.43
2022-10-31T04:43:40.342Z,11.07
2022-10-31T04:49:41.869Z,14.57
2022-10-31T04:55:45.589Z,14.10
2022-10-31T05:01:56.864Z,11.57
2022-10-31T05:08:20.669Z,15.07
2022-10-31T05:14:25.650Z,12.80
2022-10-31T05:20:45.483Z,15.00
2022-10-31T05:26:57.159Z,13.50
2022-10-31T05:32:59.449Z,13.60
2022-10-31T05:39:19.817Z,13.75
2022-10-31T05:45:24.587Z,12.00
2022-10-31T05:51:33.501Z,15.05
2022-10-31T05:57:35.281Z,13.02
2022-10-31T06:03:37.461Z,13.13
2022-10-31T06:09:41.354Z,12.27
2022-10-31T06:15:43.322Z,13.10
2022-10-31T06:21:44.817Z,15.77
2022-10-31T06:27:46.870Z,13.70
2022-10-31T06:33:49.901Z,13.40
2022-10-31T06:39:52.068Z,14.35
2022-10-31T06:45:53.998Z,12.23
2022-10-31T06:52:07.097Z,13.98
2022-10-31T06:58:10.582Z,13.65
2022-10-31T07:04:14.920Z,12.80
2022-10-31T07:10:16.500Z,15.10
2022-10-31T07:16:27.713Z,13.93
2022-10-31T07:22:36.236Z,12.65
2022-10-31T07:28:39.507Z,14.25
2022-10-31T07:34:46.559Z,12.53
2022-10-31T07:40:55.808Z,13.82
2022-10-31T07:46:58.625Z,12.30
2022-10-31T07:53:18.787Z,16.33
2022-10-31T07:59:35.029Z,13.02
2022-10-31T08:05:36.996Z,14.83
2022-10-31T08:12:04.969Z,15.65
2022-10-31T08:18:17.753Z,14.00
2022-10-31T08:24:19.339Z,13.05
2022-10-31T08:30:21.940Z,15.23
2022-10-31T08:36:45.826Z,14.53
2022-10-31T08:42:58.491Z,13.48
2022-10-31T08:49:00.019Z,12.83
2022-10-31T08:55:01.509Z,15.75
2022-10-31T09:01:21.779Z,16.60
2022-10-31T09:07:23.493Z,20.27
2022-10-31T09:13:27.953Z,21.70
2022-10-31T09:19:52.720Z,21.27
2022-10-31T09:25:54.754Z,28.38
2022-10-31T09:32:22.453Z,30.08
2022-10-31T09:38:24.557Z,34.23
2022-10-31T09:44:29.684Z,33.40
2022-10-31T09:50:49.369Z,40.77
2022-10-31T09:57:14.354Z,40.10
2022-10-31T10:03:36.509Z,35.50
2022-10-31T10:09:52.929Z,38.77
2022-10-31T10:16:41.194Z,40.47
2022-10-31T10:22:45.631Z,42.57
2022-10-31T10:28:58.714Z,43.42
2022-10-31T10:35:08.364Z,39.97
2022-10-31T10:41:19.975Z,41.23
2022-10-31T10:47:40.166Z,39.08
2022-10-31T10:54:07.995Z,42.23
2022-10-31T11:00:22.745Z,36.80
2022-10-31T11:06:26.809Z,44.22
2022-10-31T11:12:33.511Z,36.90
2022-10-31T11:18:40.161Z,48.55
2022-10-31T11:24:42.193Z,43.50
2022-10-31T11:30:45.715Z,38.88
2022-10-31T11:36:47.237Z,41.65
2022-10-31T11:42:49.601Z,38.63
2022-10-31T11:48:53.036Z,43.70
2022-10-31T11:54:56.286Z,40.80
2022-10-31T12:00:58.497Z,37.55
2022-10-31T12:07:00.370Z,39.78
2022-10-31T12:13:22.259Z,34.50
2022-10-31T12:19:36.002Z,38.20
2022-10-31T12:25:51.450Z,37.03
2022-10-31T12:32:12.456Z,35.85
2022-10-31T12:38:17.086Z,33.58
2022-10-31T12:44:21.478Z,40.10
2022-10-31T12:50:26.491Z,36.00
2022-10-31T12:56:35.917Z,37.83
2022-10-31T13:03:00.458Z,39.28
2022-10-31T13:09:03.888Z,39.30
2022-10-31T13:15:17.721Z,40.57
2022-10-31T13:21:23.733Z,42.03
2022-10-31T13:27:26.736Z,38.17
2022-10-31T13:33:30.997Z,38.08
2022-10-31T13:39:45.825Z,38.17
2022-10-31T13:45:51.905Z,40.43
2022-10-31T13:51:54.027Z,40.35
2022-10-31T13:57:55.522Z,35.83
2022-10-31T14:04:13.156Z,32.53
2022-10-31T14:10:23.654Z,34.50
2022-10-31T14:16:27.172Z,27.83
2022-10-31T14:22:32.493Z,30.95
2022-10-31T14:28:35.120Z,30.70
2022-10-31T14:34:38.333Z,34.63
2022-10-31T14:47:00.980Z,40.70
2022-10-31T14:53:04.451Z,43.13
2022-10-31T14:59:14.470Z,38.47
2022-10-31T15:05:16.356Z,39.67
2022-10-31T15:11:19.358Z,41.87
2022-10-31T15:17:21.690Z,39.72
2022-10-31T15:23:28.184Z,46.10
2022-10-31T15:29:30.395Z,43.28
2022-10-31T15:35:31.984Z,41.67
2022-10-31T15:41:54.752Z,41.63
2022-10-31T15:48:01.290Z,41.33
2022-10-31T15:54:03.131Z,42.53
2022-10-31T16:00:05.073Z,45.67
2022-10-31T16:06:07.037Z,47.03
2022-10-31T16:12:18.614Z,43.60
2022-10-31T16:18:23.132Z,44.67
2022-10-31T16:24:32.422Z,46.60
2022-10-31T16:30:47.960Z,51.78
2022-10-31T16:36:50.096Z,51.10
2022-10-31T16:42:51.707Z,49.33
2022-10-31T16:48:53.336Z,50.45
2022-10-31T16:54:55.534Z,48.67
2022-10-31T17:00:57.526Z,49.40
2022-10-31T17:06:59.071Z,52.60
2022-10-31T17:13:03.082Z,54.53
2022-10-31T17:19:04.525Z,68.13
2022-10-31T17:25:06.292Z,59.77
2022-10-31T17:31:13.092Z,53.92
2022-10-31T17:37:14.761Z,57.15
2022-10-31T17:43:16.257Z,61.80
2022-10-31T17:49:17.714Z,73.75
2022-10-31T17:55:19.733Z,70.50
2022-10-31T18:01:21.346Z,64.88
2022-10-31T18:07:22.866Z,63.78
2022-10-31T18:13:24.498Z,54.97
2022-10-31T18:19:25.958Z,58.38
2022-10-31T18:25:27.458Z,58.57
2022-10-31T18:31:29.071Z,56.55
2022-10-31T18:37:30.729Z,62.05
2022-10-31T18:43:33.521Z,54.77
2022-10-31T18:49:36.462Z,55.25
2022-10-31T18:55:45.353Z,61.07
2022-10-31T19:01:51.063Z,53.45
2022-10-31T19:07:52.650Z,56.90
2022-10-31T19:13:54.324Z,59.13
2022-10-31T19:19:55.921Z,56.25
2022-10-31T19:26:00.603Z,57.77
2022-10-31T19:32:02.081Z,58.33
2022-10-31T19:38:04.061Z,51.50
2022-10-31T19:44:05.757Z,55.43
2022-10-31T19:50:07.630Z,48.65
2022-10-31T19:56:16.256Z,46.00
2022-10-31T20:02:20.835Z,50.05
2022-10-31T20:08:22.936Z,44.70
2022-10-31T20:14:24.502Z,38.67
2022-10-31T20:20:26.054Z,40.63
2022-10-31T20:26:28.136Z,41.93
2022-10-31T20:32:29.689Z,45.42
2022-10-31T20:38:31.378Z,44.53
2022-10-31T20:44:32.906Z,42.57
2022-10-31T20:50:34.387Z,47.70
2022-10-31T20:56:35.850Z,47.03
2022-10-31T21:02:43.697Z,46.30
2022-10-31T21:08:45.661Z,40.53
2022-10-31T21:14:47.150Z,41.90
2022-10-31T21:20:48.601Z,41.33
2022-10-31T21:26:51.092Z,42.33
2022-10-31T21:32:52.614Z,43.30
2022-10-31T21:38:54.657Z,35.38
2022-10-31T21:44:56.114Z,34.07
2022-10-31T21:50:57.600Z,38.00
2022-10-31T21:56:59.704Z,37.70
2022-10-31T22:03:01.138Z,29.33
2022-10-31T22:09:03.942Z,31.70
2022-10-31T22:15:05.544Z,29.53
2022-10-31T22:21:07.050Z,31.90
2022-10-31T22:27:08.599Z,32.40
2022-10-31T22:33:10.058Z,30.25
2022-10-31T22:39:13.062Z,32.40
2022-10-31T22:45:14.650Z,31.67
2022-10-31T22:51:17.546Z,37.00
2022-10-31T22:57:19.026Z,37.57
2022-10-31T23:03:20.506Z,34.67
2022-10-31T23:09:21.970Z,31.27
2022-10-31T23:15:23.426Z,33.60
2022-10-31T23:21:43.751Z,34.03
2022-10-31T23:27:45.221Z,31.20
2022-10-31T23:33:46.681Z,31.17
2022-10-31T23:39:48.470Z,32.95
2022-10-31T23:45:49.896Z,31.53
2022-10-31T23:51:51.325Z,29.67
2022-10-31T23:57:52.806Z,30.40
